Time;durP1;ratioP1;P1;durP2;ratioP2;P2;SDS_P1;SDS_P2;PMS_P1;PMS_P2;Temp;Humidity;BMP_temperature;BMP_pressure;BME280_temperature;BME280_humidity;BME280_pressure;Samples;Min_cycle;Max_cycle;Signal;HPM_P1;HPM_P2
2021/01/20 00:00:18;;;;;;;1.57;1.17;;;;;;;6.65;56.65;94989.25;6974745;28;20286;-78
2021/01/20 00:03:39;;;;;;;0.83;0.83;;;;;;;6.68;56.01;94990.81;6916584;28;20211;-77
2021/01/20 00:06:59;;;;;;;0.73;0.73;;;;;;;6.69;56.35;94988.03;6908316;28;20314;-75
2021/01/20 00:10:20;;;;;;;1.00;0.83;;;;;;;6.69;55.96;94980.13;6906188;28;20235;-75
2021/01/20 00:13:40;;;;;;;0.83;0.83;;;;;;;6.70;56.24;94970.41;6947875;28;20200;-76
2021/01/20 00:17:01;;;;;;;0.90;0.90;;;;;;;6.71;56.17;94964.19;6923934;28;20239;-76
2021/01/20 00:20:21;;;;;;;1.60;0.90;;;;;;;6.77;55.75;94964.53;6929207;28;20576;-76
2021/01/20 00:23:42;;;;;;;0.87;0.87;;;;;;;6.83;55.20;94953.50;6942152;28;20208;-76
2021/01/20 00:27:03;;;;;;;0.67;0.67;;;;;;;6.93;54.65;94939.59;6921423;28;20661;-74
2021/01/20 00:30:24;;;;;;;0.83;0.67;;;;;;;6.99;54.66;94947.84;6943147;28;20303;-76
2021/01/20 00:33:45;;;;;;;0.83;0.83;;;;;;;7.01;54.63;94939.81;6949197;28;20340;-76
2021/01/20 00:37:06;;;;;;;0.50;0.50;;;;;;;7.00;54.16;94941.59;6958014;28;20227;-75
2021/01/20 00:40:26;;;;;;;0.70;0.70;;;;;;;7.02;53.97;94931.75;6966881;28;20234;-74
2021/01/20 00:43:47;;;;;;;0.70;0.70;;;;;;;7.03;53.78;94928.19;6955217;28;20226;-75
2021/01/20 00:47:08;;;;;;;1.77;0.67;;;;;;;7.06;53.43;94927.91;6958353;28;20331;-74
2021/01/20 00:50:28;;;;;;;0.87;0.87;;;;;;;7.08;52.89;94922.53;6949418;28;20215;-75
2021/01/20 00:53:48;;;;;;;0.80;0.80;;;;;;;7.10;52.70;94918.78;6961478;28;20261;-76
2021/01/20 00:57:09;;;;;;;0.80;0.80;;;;;;;7.13;51.81;94918.56;6976355;28;20210;-76
2021/01/20 01:00:29;;;;;;;0.70;0.70;;;;;;;7.18;51.85;94912.91;6978313;28;20218;-76
2021/01/20 01:03:50;;;;;;;0.87;0.87;;;;;;;7.22;51.43;94912.53;6976336;28;20676;-76
2021/01/20 01:07:10;;;;;;;0.77;0.77;;;;;;;7.25;50.98;94908.78;6957846;28;20583;-76
2021/01/20 01:10:31;;;;;;;0.90;0.70;;;;;;;7.26;50.70;94905.19;6955887;28;20222;-76
2021/01/20 01:13:51;;;;;;;0.80;0.80;;;;;;;7.26;50.56;94895.47;6952377;28;20207;-76
2021/01/20 01:17:11;;;;;;;0.70;0.70;;;;;;;7.32;50.48;94896.75;6975546;28;20288;-75
2021/01/20 01:20:32;;;;;;;0.97;0.73;;;;;;;7.32;49.74;94886.19;6973757;28;20215;-75
2021/01/20 01:23:54;;;;;;;0.80;0.70;;;;;;;7.30;49.75;94888.13;6941179;28;20206;-75
2021/01/20 01:27:15;;;;;;;0.90;0.70;;;;;;;7.34;49.16;94889.56;6962543;28;20315;-75
2021/01/20 01:30:37;;;;;;;0.73;0.60;;;;;;;7.36;49.19;94887.63;6963367;28;20222;-75
2021/01/20 01:33:58;;;;;;;0.60;0.60;;;;;;;7.44;48.46;94884.38;6946150;28;20310;-75
2021/01/20 01:37:21;;;;;;;0.63;0.63;;;;;;;7.48;47.59;94878.69;6933590;28;20228;-75
2021/01/20 01:40:41;;;;;;;0.53;0.53;;;;;;;7.53;47.69;94879.16;6962207;28;20622;-75
2021/01/20 01:44:02;;;;;;;0.60;0.60;;;;;;;7.56;47.60;94872.75;6931092;28;20676;-75
2021/01/20 01:47:25;;;;;;;0.40;0.40;;;;;;;7.56;47.25;94870.97;6974760;28;20261;-75
2021/01/20 01:50:51;;;;;;;0.70;0.70;;;;;;;7.56;47.65;94875.41;6974079;28;20215;-76
2021/01/20 01:54:11;;;;;;;0.60;0.57;;;;;;;7.53;47.54;94879.16;6925013;28;20285;-76
2021/01/20 01:57:32;;;;;;;0.73;0.73;;;;;;;7.49;47.67;94875.09;6939848;28;20567;-75
2021/01/20 02:00:54;;;;;;;0.70;0.70;;;;;;;7.42;48.27;94873.91;6980560;28;20211;-74
2021/01/20 02:04:15;;;;;;;0.70;0.70;;;;;;;7.38;48.47;94869.00;6958200;28;20215;-74
2021/01/20 02:07:35;;;;;;;0.60;0.60;;;;;;;7.37;48.20;94869.97;6936088;28;20318;-75
2021/01/20 02:11:15;;;;;;;1.90;0.77;;;;;;;7.38;48.03;94861.94;6965470;28;20698;-75
2021/01/20 02:14:52;;;;;;;0.63;0.63;;;;;;;7.44;47.63;94857.94;6937696;28;20291;-75
2021/01/20 02:18:14;;;;;;;0.70;0.70;;;;;;;7.46;47.59;94858.63;6947688;28;20230;-74
2021/01/20 02:21:38;;;;;;;0.63;0.60;;;;;;;7.43;47.81;94856.25;6938104;28;20305;-75
2021/01/20 02:25:09;;;;;;;0.80;0.80;;;;;;;7.40;48.22;94856.50;6955914;28;20227;-74
2021/01/20 02:28:51;;;;;;;0.67;0.67;;;;;;;7.32;48.15;94855.34;6960198;28;20230;-74
2021/01/20 02:32:12;;;;;;;0.70;0.70;;;;;;;7.29;48.34;94849.50;6943469;28;20265;-75
2021/01/20 02:35:33;;;;;;;1.30;0.83;;;;;;;7.30;48.57;94851.13;6953860;28;20231;-74
2021/01/20 02:38:54;;;;;;;0.60;0.60;;;;;;;7.31;48.18;94851.03;6955337;28;20218;-74
2021/01/20 02:42:14;;;;;;;1.10;1.00;;;;;;;7.31;48.42;94851.03;6945337;28;20216;-75
2021/01/20 02:45:35;;;;;;;0.60;0.60;;;;;;;7.33;48.39;94857.03;6950819;28;20245;-74
2021/01/20 02:48:56;;;;;;;0.70;0.70;;;;;;;7.34;48.49;94845.47;6946627;28;20259;-75
2021/01/20 02:52:27;;;;;;;0.70;0.70;;;;;;;7.40;48.21;94853.84;6946842;28;20277;-74
2021/01/20 02:55:56;;;;;;;0.53;0.53;;;;;;;7.44;47.99;94852.66;6954827;28;20215;-74
2021/01/20 02:59:18;;;;;;;0.60;0.60;;;;;;;7.46;47.74;94848.06;6957252;28;20210;-74
2021/01/20 03:02:39;;;;;;;0.67;0.67;;;;;;;7.55;47.05;94849.94;6943427;28;20214;-74
2021/01/20 03:06:01;;;;;;;0.70;0.70;;;;;;;7.65;46.80;94850.84;6960983;28;20563;-75
2021/01/20 03:09:21;;;;;;;0.80;0.80;;;;;;;7.71;46.39;94845.06;6959931;28;20591;-74
2021/01/20 03:12:42;;;;;;;1.10;0.50;;;;;;;7.77;45.93;94849.84;6940065;28;20715;-74
2021/01/20 03:16:04;;;;;;;1.33;0.83;;;;;;;7.82;46.05;94831.78;6943582;28;20335;-75
2021/01/20 03:19:25;;;;;;;0.63;0.63;;;;;;;7.87;45.04;94834.88;6938044;28;20248;-74
2021/01/20 03:22:45;;;;;;;1.03;0.70;;;;;;;7.94;44.79;94832.56;6969581;28;20227;-74
2021/01/20 03:26:06;;;;;;;0.77;0.77;;;;;;;7.86;45.82;94841.13;6958766;28;20305;-75
2021/01/20 03:29:26;;;;;;;0.60;0.60;;;;;;;7.78;45.98;94832.19;6954586;28;20305;-74
2021/01/20 03:32:46;;;;;;;0.70;0.60;;;;;;;7.69;46.81;94828.50;6971457;28;20591;-74
2021/01/20 03:36:07;;;;;;;1.13;0.93;;;;;;;7.65;46.57;94819.97;6949152;28;20233;-75
2021/01/20 03:39:27;;;;;;;0.60;0.60;;;;;;;7.65;46.59;94830.56;6943692;28;20234;-76
2021/01/20 03:42:47;;;;;;;1.93;0.70;;;;;;;7.68;46.36;94824.19;6962487;28;20727;-75
2021/01/20 03:46:08;;;;;;;0.80;0.80;;;;;;;7.68;46.51;94822.38;6950389;28;20223;-76
2021/01/20 03:49:28;;;;;;;0.60;0.60;;;;;;;7.69;46.37;94815.31;6983287;28;20215;-75
2021/01/20 03:52:49;;;;;;;1.20;0.73;;;;;;;7.65;46.58;94817.34;6953574;28;20210;-75
2021/01/20 03:56:09;;;;;;;0.60;0.60;;;;;;;7.67;46.53;94810.13;6964962;28;20261;-75
2021/01/20 03:59:30;;;;;;;1.57;0.70;;;;;;;7.63;47.31;94807.88;6963892;28;20246;-75
2021/01/20 04:02:50;;;;;;;0.60;0.60;;;;;;;7.60;47.33;94794.91;6949088;28;20214;-75
2021/01/20 04:06:11;;;;;;;0.50;0.50;;;;;;;7.57;47.06;94806.59;6986325;28;20267;-75
2021/01/20 04:09:31;;;;;;;0.60;0.60;;;;;;;7.53;46.96;94801.69;6953832;28;20228;-75
2021/01/20 04:12:52;;;;;;;0.70;0.70;;;;;;;7.50;47.19;94800.13;6954936;28;20208;-74
2021/01/20 04:16:12;;;;;;;0.97;0.70;;;;;;;7.49;47.60;94795.84;6938835;28;20219;-72
2021/01/20 04:19:33;;;;;;;0.70;0.70;;;;;;;7.45;47.28;94796.19;6973109;28;20215;-75
2021/01/20 04:22:53;;;;;;;0.60;0.60;;;;;;;7.46;47.23;94800.53;6940834;28;20252;-75
2021/01/20 04:26:13;;;;;;;0.50;0.50;;;;;;;7.46;47.40;94797.88;6971027;28;20249;-74
2021/01/20 04:29:34;;;;;;;0.63;0.60;;;;;;;7.46;47.18;94795.25;6953487;28;20217;-74
2021/01/20 04:32:54;;;;;;;0.60;0.60;;;;;;;7.46;47.60;94792.59;6985391;28;20307;-75
2021/01/20 04:36:17;;;;;;;0.93;0.60;;;;;;;7.47;47.16;94797.75;6960029;28;20235;-75
2021/01/20 04:39:38;;;;;;;0.97;0.70;;;;;;;7.49;46.98;94787.06;6968638;28;20306;-75
2021/01/20 04:43:00;;;;;;;1.70;0.67;;;;;;;7.53;47.45;94788.50;6959425;28;20207;-76
2021/01/20 04:46:22;;;;;;;0.53;0.53;;;;;;;7.58;46.88;94783.66;6951152;28;20249;-75
2021/01/20 04:49:45;;;;;;;0.93;0.70;;;;;;;7.68;46.27;94780.09;6965237;28;20218;-76
2021/01/20 04:53:07;;;;;;;3.10;0.60;;;;;;;7.73;46.07;94774.44;6961914;28;20611;-75
2021/01/20 04:56:29;;;;;;;0.60;0.60;;;;;;;7.73;46.61;94774.44;6941110;28;20239;-75
2021/01/20 04:59:50;;;;;;;0.80;0.60;;;;;;;7.71;46.73;94779.00;6960750;28;20219;-76
2021/01/20 05:03:10;;;;;;;0.50;0.50;;;;;;;7.68;46.42;94766.06;6954064;28;20224;-76
2021/01/20 05:06:31;;;;;;;1.90;0.60;;;;;;;7.65;46.77;94774.22;6951048;28;20212;-76
2021/01/20 05:09:51;;;;;;;2.33;0.50;;;;;;;7.57;46.91;94772.25;6938320;28;20308;-75
2021/01/20 05:13:25;;;;;;;0.70;0.70;;;;;;;7.58;46.95;94770.44;6952898;28;20246;-76
2021/01/20 05:16:50;;;;;;;0.67;0.67;;;;;;;7.56;46.90;94770.56;6934823;28;20239;-75
2021/01/20 05:20:25;;;;;;;0.77;0.70;;;;;;;7.56;46.07;94761.78;6951978;28;20242;-76
2021/01/20 05:23:45;;;;;;;1.33;0.73;;;;;;;7.60;46.08;94769.34;6943022;28;20587;-75
2021/01/20 05:27:06;;;;;;;0.83;0.70;;;;;;;7.65;46.35;94772.41;6946869;28;20677;-75
2021/01/20 05:30:26;;;;;;;0.40;0.40;;;;;;;7.66;45.95;94762.69;6935472;28;20215;-75
2021/01/20 05:33:47;;;;;;;0.70;0.70;;;;;;;7.69;45.45;94765.09;6958378;28;20222;-75
2021/01/20 05:37:11;;;;;;;0.70;0.70;;;;;;;7.75;45.06;94751.34;6929266;28;20341;-75
2021/01/20 05:40:34;;;;;;;0.70;0.70;;;;;;;7.79;44.85;94752.75;6931708;28;20220;-75
2021/01/20 05:44:11;;;;;;;1.07;0.80;;;;;;;7.82;44.88;94744.56;6931620;28;20700;-75
2021/01/20 05:47:31;;;;;;;0.70;0.70;;;;;;;7.89;44.71;94744.88;6957638;28;20227;-75
2021/01/20 05:50:57;;;;;;;0.70;0.70;;;;;;;7.89;44.87;94747.53;6925709;28;20315;-74
2021/01/20 05:54:32;;;;;;;2.63;0.70;;;;;;;7.88;45.13;94737.91;6967970;28;20226;-73
2021/01/20 05:57:53;;;;;;;1.97;0.60;;;;;;;7.85;45.10;94728.44;6952060;28;20222;-75
2021/01/20 06:01:13;;;;;;;0.70;0.70;;;;;;;7.90;45.01;94722.75;6944476;28;20599;-76
2021/01/20 06:04:35;;;;;;;0.73;0.70;;;;;;;7.98;43.97;94721.13;6938445;28;20223;-75
2021/01/20 06:07:55;;;;;;;0.60;0.60;;;;;;;8.07;43.84;94712.38;6956018;28;20226;-76
2021/01/20 06:11:16;;;;;;;0.90;0.90;;;;;;;8.11;43.58;94715.59;6971255;28;20219;-75
2021/01/20 06:14:39;;;;;;;0.60;0.60;;;;;;;8.17;43.30;94713.25;6953323;28;20275;-76
2021/01/20 06:18:00;;;;;;;0.57;0.57;;;;;;;8.22;43.18;94707.56;6950247;28;20225;-76
2021/01/20 06:21:21;;;;;;;1.13;0.70;;;;;;;8.29;42.36;94703.41;6954109;28;20215;-76
2021/01/20 06:24:47;;;;;;;0.80;0.80;;;;;;;8.32;42.51;94692.56;6952726;28;20210;-75
2021/01/20 06:28:09;;;;;;;1.10;0.80;;;;;;;8.30;42.64;94691.06;6941649;28;20222;-76
2021/01/20 06:31:29;;;;;;;0.70;0.70;;;;;;;8.33;42.45;94690.78;6970931;28;20238;-76
2021/01/20 06:34:51;;;;;;;0.80;0.80;;;;;;;8.37;42.50;94687.72;6969210;28;20557;-75
2021/01/20 06:38:27;;;;;;;0.80;0.80;;;;;;;8.41;42.61;94682.97;6944313;28;20273;-75
2021/01/20 06:41:47;;;;;;;1.00;0.90;;;;;;;8.44;42.64;94680.91;6963752;28;20225;-76
2021/01/20 06:45:25;;;;;;;1.60;0.80;;;;;;;8.45;42.56;94692.34;6959634;28;20224;-76
2021/01/20 06:48:51;;;;;;;1.33;0.97;;;;;;;8.46;43.14;94686.03;6925112;28;20296;-75
2021/01/20 06:52:13;;;;;;;1.33;0.80;;;;;;;8.48;43.19;94686.75;6965695;28;20230;-75
2021/01/20 06:55:35;;;;;;;2.00;1.03;;;;;;;8.47;43.42;94685.91;6943858;28;20234;-75
2021/01/20 06:59:32;;;;;;;1.10;0.80;;;;;;;8.50;43.41;94680.34;6940249;28;20249;-75
2021/01/20 07:03:00;;;;;;;0.90;0.80;;;;;;;8.53;43.78;94673.94;6932238;28;20702;-73
2021/01/20 07:06:35;;;;;;;1.27;1.10;;;;;;;8.57;43.13;94676.19;6936306;28;20215;-76
2021/01/20 07:09:56;;;;;;;1.10;1.00;;;;;;;8.64;43.32;94678.28;6965030;28;20248;-75
2021/01/20 07:13:17;;;;;;;2.77;1.37;;;;;;;8.66;43.61;94679.81;6966496;28;20630;-76
2021/01/20 07:16:38;;;;;;;1.40;1.00;;;;;;;8.69;43.69;94676.91;6958817;28;20377;-77
2021/01/20 07:19:58;;;;;;;1.10;1.00;;;;;;;8.72;44.27;94675.75;6948156;28;20567;-77
2021/01/20 07:23:19;;;;;;;0.97;0.97;;;;;;;8.74;44.37;94674.66;6922782;28;20578;-77
2021/01/20 07:26:40;;;;;;;1.87;1.03;;;;;;;8.82;43.94;94673.97;6942628;28;20316;-74
2021/01/20 07:30:13;;;;;;;2.13;1.10;;;;;;;8.88;43.88;94662.81;6932142;28;20587;-74
2021/01/20 07:33:34;;;;;;;1.20;0.87;;;;;;;8.91;44.13;94657.22;6951401;28;20218;-74
2021/01/20 07:36:54;;;;;;;0.80;0.80;;;;;;;8.94;43.71;94652.50;6930658;28;20228;-73
2021/01/20 07:40:15;;;;;;;1.70;1.20;;;;;;;8.94;44.08;94659.59;6933701;28;20216;-74
2021/01/20 07:43:36;;;;;;;1.23;0.70;;;;;;;8.93;44.56;94661.41;6915120;28;20268;-75
2021/01/20 07:47:00;;;;;;;0.87;0.83;;;;;;;8.93;44.65;94650.81;6953769;28;20211;-74
2021/01/20 07:50:23;;;;;;;1.07;0.97;;;;;;;9.00;44.29;94659.06;6924850;28;20207;-75
2021/01/20 07:53:59;;;;;;;1.20;1.10;;;;;;;9.07;44.08;94651.34;6927882;28;20218;-76
2021/01/20 07:57:21;;;;;;;2.60;1.10;;;;;;;9.16;43.84;94643.41;6956883;28;20696;-74
2021/01/20 08:00:42;;;;;;;2.43;1.10;;;;;;;9.24;43.45;94640.88;6920668;28;20287;-74
2021/01/20 08:04:17;;;;;;;1.77;1.20;;;;;;;9.33;43.46;94640.03;6947860;28;20248;-74
2021/01/20 08:07:37;;;;;;;1.17;0.93;;;;;;;9.44;42.97;94639.84;6941673;28;20568;-74
2021/01/20 08:11:00;;;;;;;1.23;1.00;;;;;;;9.47;43.49;94623.66;6908392;28;20689;-74
2021/01/20 08:14:21;;;;;;;13.50;10.50;;;;;;;9.63;42.60;94627.50;6917513;28;20208;-75
2021/01/20 08:17:43;;;;;;;3.30;3.00;;;;;;;9.75;42.61;94626.34;6917742;28;20223;-74
2021/01/20 08:21:08;;;;;;;1.47;1.37;;;;;;;9.85;42.31;94616.53;6963029;28;20227;-73
2021/01/20 08:24:29;;;;;;;1.10;0.80;;;;;;;9.96;42.22;94615.50;6956092;28;20204;-72
2021/01/20 08:27:49;;;;;;;2.17;1.10;;;;;;;10.11;41.66;94617.47;6931678;28;20219;-73
2021/01/20 08:31:20;;;;;;;1.53;1.10;;;;;;;10.32;41.09;94611.94;6950218;28;20207;-73
2021/01/20 08:34:42;;;;;;;1.50;1.40;;;;;;;10.51;41.04;94611.81;6962369;28;20205;-73
2021/01/20 08:38:04;;;;;;;1.57;1.30;;;;;;;10.66;40.40;94599.66;6940303;28;20244;-73
2021/01/20 08:41:24;;;;;;;1.53;1.20;;;;;;;10.79;40.00;94607.25;6978366;28;20218;-72
2021/01/20 08:45:07;;;;;;;2.40;0.80;;;;;;;10.90;40.81;94608.84;6929088;28;20207;-73
2021/01/20 08:48:30;;;;;;;2.80;1.03;;;;;;;11.00;39.80;94605.13;6930316;28;20217;-73
2021/01/20 08:51:57;;;;;;;1.23;0.90;;;;;;;11.17;39.64;94598.06;6946401;28;20199;-72
2021/01/20 08:55:38;;;;;;;1.50;1.10;;;;;;;11.27;39.02;94606.78;6943232;28;20249;-73
2021/01/20 08:58:59;;;;;;;1.40;0.90;;;;;;;11.35;38.75;94596.22;6961591;28;20224;-72
2021/01/20 09:02:20;;;;;;;3.27;1.47;;;;;;;11.47;38.42;94602.09;6963788;28;20227;-73
2021/01/20 09:05:40;;;;;;;5.83;0.80;;;;;;;11.52;38.12;94590.00;6961822;28;20656;-73
2021/01/20 09:09:00;;;;;;;1.00;0.90;;;;;;;11.63;38.22;94591.53;6957119;28;20207;-73
2021/01/20 09:12:21;;;;;;;2.73;0.90;;;;;;;11.74;37.97;94590.47;6952176;28;20242;-73
2021/01/20 09:15:44;;;;;;;0.97;0.80;;;;;;;11.81;37.77;94588.84;6943210;28;20227;-73
2021/01/20 09:19:04;;;;;;;2.03;0.90;;;;;;;11.86;37.58;94579.41;6911654;28;20233;-73
2021/01/20 09:22:25;;;;;;;0.87;0.80;;;;;;;11.91;37.14;94571.78;6939195;28;20214;-73
2021/01/20 09:25:46;;;;;;;1.37;0.80;;;;;;;11.95;36.88;94573.13;6974688;28;20782;-73
2021/01/20 09:29:09;;;;;;;1.00;0.87;;;;;;;12.12;37.23;94566.00;6953667;28;20226;-73
2021/01/20 09:32:35;;;;;;;0.70;0.63;;;;;;;12.35;37.01;94569.72;6947940;28;20676;-73
2021/01/20 09:35:55;;;;;;;2.17;1.00;;;;;;;12.61;37.22;94566.09;6936780;28;20705;-73
2021/01/20 09:39:15;;;;;;;0.90;0.90;;;;;;;12.90;36.99;94561.97;6968323;28;20222;-73
2021/01/20 09:42:37;;;;;;;1.43;1.03;;;;;;;13.08;35.89;94559.09;6939059;28;20207;-73
2021/01/20 09:45:57;;;;;;;1.20;1.00;;;;;;;13.29;36.28;94550.59;6955833;28;20218;-73
2021/01/20 09:49:18;;;;;;;0.83;0.83;;;;;;;13.53;36.04;94542.53;6941015;28;20215;-73
2021/01/20 09:52:39;;;;;;;1.07;1.00;;;;;;;13.80;35.77;94543.97;6927387;28;20241;-73
2021/01/20 09:56:04;;;;;;;1.57;0.90;;;;;;;14.00;34.81;94537.19;6955743;28;20227;-74
2021/01/20 09:59:25;;;;;;;1.30;0.97;;;;;;;14.19;34.54;94528.75;6957337;28;20227;-73
2021/01/20 10:02:45;;;;;;;0.80;0.80;;;;;;;14.37;33.98;94525.84;6948576;28;20230;-74
2021/01/20 10:06:06;;;;;;;3.73;3.40;;;;;;;14.47;33.73;94515.78;6949861;28;20215;-74
2021/01/20 10:09:26;;;;;;;3.60;3.17;;;;;;;14.43;33.75;94517.16;6923862;28;20785;-74
2021/01/20 10:12:50;;;;;;;3.13;2.63;;;;;;;14.43;33.58;94513.63;6953678;28;20212;-74
2021/01/20 10:16:10;;;;;;;3.17;2.37;;;;;;;14.34;33.25;94509.28;6954355;28;20223;-73
2021/01/20 10:19:30;;;;;;;5.53;5.03;;;;;;;14.21;33.65;94506.38;6937857;28;20763;-74
2021/01/20 10:22:51;;;;;;;2.33;2.13;;;;;;;14.06;33.70;94501.81;6940103;28;20210;-74
2021/01/20 10:26:13;;;;;;;3.37;1.60;;;;;;;14.00;34.44;94493.66;6967123;28;20606;-74
2021/01/20 10:29:34;;;;;;;2.50;1.40;;;;;;;14.06;34.54;94487.63;6961859;28;20303;-76
2021/01/20 10:32:55;;;;;;;1.03;0.97;;;;;;;14.18;34.06;94486.22;6951056;28;20230;-76
2021/01/20 10:36:15;;;;;;;1.33;1.03;;;;;;;14.35;34.11;94476.25;6970806;28;20269;-75
2021/01/20 10:39:35;;;;;;;2.20;2.00;;;;;;;14.45;33.30;94477.72;6950293;28;20215;-75
2021/01/20 10:42:56;;;;;;;1.30;1.20;;;;;;;14.56;33.60;94469.28;6926845;28;20219;-77
2021/01/20 10:46:17;;;;;;;0.83;0.70;;;;;;;14.74;32.89;94460.09;6970082;28;20230;-76
2021/01/20 10:49:40;;;;;;;1.20;1.10;;;;;;;15.00;32.38;94447.16;6937463;28;20675;-75
2021/01/20 10:53:01;;;;;;;1.50;0.90;;;;;;;15.27;32.09;94451.06;6954699;28;20218;-76
2021/01/20 10:56:21;;;;;;;1.13;0.90;;;;;;;15.39;31.45;94446.94;6953441;28;20226;-75
2021/01/20 10:59:41;;;;;;;1.77;1.67;;;;;;;15.57;31.42;94449.25;6941030;28;20583;-79
2021/01/20 11:03:02;;;;;;;1.10;1.00;;;;;;;15.72;31.04;94442.88;6911535;28;20311;-77
2021/01/20 11:06:25;;;;;;;1.27;0.80;;;;;;;15.96;30.91;94443.53;6946678;28;20245;-76
2021/01/20 11:09:47;;;;;;;1.83;1.00;;;;;;;16.38;30.63;94427.53;6928965;28;20334;-76
2021/01/20 11:13:08;;;;;;;0.83;0.80;;;;;;;16.99;31.02;94423.34;6928022;28;20573;-75
2021/01/20 11:16:30;;;;;;;1.03;0.93;;;;;;;17.54;29.80;94418.94;6949242;28;20772;-76
2021/01/20 11:19:51;;;;;;;1.10;0.80;;;;;;;17.60;29.53;94415.50;6946609;28;20706;-76
2021/01/20 11:23:12;;;;;;;1.30;1.07;;;;;;;17.53;30.00;94412.75;6942718;28;20216;-76
2021/01/20 11:26:35;;;;;;;2.53;0.80;;;;;;;17.40;30.14;94417.22;6939035;28;20215;-76
2021/01/20 11:29:55;;;;;;;1.33;1.10;;;;;;;17.28;30.14;94405.38;6975592;28;20782;-76
2021/01/20 11:33:16;;;;;;;3.67;1.90;;;;;;;16.95;29.67;94402.47;6952388;28;20696;-82
2021/01/20 11:36:36;;;;;;;1.23;1.00;;;;;;;16.70;30.79;94397.53;6938887;28;20226;-76
2021/01/20 11:40:01;;;;;;;1.97;1.20;;;;;;;16.46;30.79;94373.78;6957082;28;20250;-76
2021/01/20 11:43:21;;;;;;;1.80;1.20;;;;;;;16.37;31.48;94385.69;6963197;28;20218;-76
2021/01/20 11:46:41;;;;;;;1.10;1.00;;;;;;;16.28;31.50;94382.31;6954984;28;20219;-75
2021/01/20 11:50:04;;;;;;;0.90;0.80;;;;;;;16.13;30.68;94370.84;6953888;28;20223;-76
2021/01/20 11:53:24;;;;;;;1.37;0.90;;;;;;;15.96;30.94;94363.22;6965392;28;20675;-75
2021/01/20 11:56:47;;;;;;;2.23;2.03;;;;;;;15.85;31.58;94360.03;6944815;28;20227;-75
2021/01/20 12:00:09;;;;;;;1.43;1.10;;;;;;;15.72;31.70;94351.03;6961182;28;20593;-76
2021/01/20 12:03:29;;;;;;;1.47;1.03;;;;;;;15.66;32.03;94357.13;6965109;28;20218;-76
2021/01/20 12:06:50;;;;;;;1.43;1.20;;;;;;;15.70;32.36;94348.53;6925459;28;20297;-76
2021/01/20 12:10:12;;;;;;;2.10;1.33;;;;;;;15.75;32.69;94351.47;6957554;28;20234;-75
2021/01/20 12:13:33;;;;;;;3.07;1.50;;;;;;;15.80;32.54;94338.34;6956098;28;20310;-76
2021/01/20 12:16:56;;;;;;;0.90;0.90;;;;;;;15.83;32.52;94331.81;6955733;28;20552;-76
2021/01/20 12:20:16;;;;;;;1.87;1.07;;;;;;;15.80;32.61;94324.97;6972232;28;20644;-76
2021/01/20 12:23:40;;;;;;;4.27;2.67;;;;;;;15.78;33.01;94315.47;6943885;28;20663;-76
2021/01/20 12:27:00;;;;;;;2.20;2.00;;;;;;;15.76;32.65;94312.16;6954492;28;20570;-76
2021/01/20 12:30:21;;;;;;;1.50;1.20;;;;;;;15.67;32.41;94307.94;6958793;28;20752;-76
2021/01/20 12:33:42;;;;;;;2.47;1.53;;;;;;;15.57;32.32;94305.59;6945281;28;20230;-74
2021/01/20 12:37:02;;;;;;;2.23;1.40;;;;;;;15.51;31.84;94290.28;6933755;28;20224;-76
2021/01/20 12:40:23;;;;;;;1.83;1.50;;;;;;;15.35;32.56;94301.16;6957678;28;20226;-75
2021/01/20 12:43:43;;;;;;;2.83;1.77;;;;;;;15.28;33.28;94286.91;6973582;28;20214;-76
2021/01/20 12:47:06;;;;;;;3.80;2.90;;;;;;;15.25;33.33;94284.59;6936520;28;20223;-76
2021/01/20 12:50:26;;;;;;;7.23;6.63;;;;;;;15.19;33.39;94277.34;6956618;28;20208;-76
2021/01/20 12:53:47;;;;;;;1.67;1.50;;;;;;;15.15;32.83;94273.38;6956625;28;20258;-75
2021/01/20 12:57:07;;;;;;;1.23;1.10;;;;;;;15.10;32.69;94275.78;6950696;28;20621;-76
2021/01/20 13:00:27;;;;;;;1.33;1.00;;;;;;;15.07;32.94;94260.13;6965289;28;20688;-75
2021/01/20 13:03:48;;;;;;;8.20;5.50;;;;;;;14.96;33.52;94262.25;6980566;28;20210;-76
2021/01/20 13:07:08;;;;;;;3.40;3.10;;;;;;;14.94;32.57;94264.28;6970440;28;20219;-76
2021/01/20 13:10:29;;;;;;;7.50;6.80;;;;;;;14.93;32.92;94259.13;6944708;28;20222;-76
2021/01/20 13:13:49;;;;;;;5.33;4.83;;;;;;;14.83;33.41;94255.91;6953293;28;20222;-77
2021/01/20 13:17:10;;;;;;;2.00;1.80;;;;;;;14.78;33.04;94243.13;6931897;28;20937;-75
2021/01/20 13:20:30;;;;;;;3.50;3.20;;;;;;;14.74;34.02;94241.81;6923687;28;20222;-76
2021/01/20 13:23:50;;;;;;;1.97;1.40;;;;;;;14.71;33.55;94244.03;6933642;28;20291;-76
2021/01/20 13:27:11;;;;;;;2.87;1.30;;;;;;;14.70;33.79;94239.69;6959988;28;20615;-77
2021/01/20 13:30:31;;;;;;;3.20;1.57;;;;;;;14.70;34.06;94237.84;6962361;28;20301;-76
2021/01/20 13:33:52;;;;;;;1.53;1.17;;;;;;;14.73;33.35;94231.31;6945508;28;20207;-76
2021/01/20 13:37:13;;;;;;;1.43;0.90;;;;;;;14.78;33.24;94232.44;6957086;28;20644;-76
2021/01/20 13:40:33;;;;;;;1.77;1.30;;;;;;;14.81;32.85;94239.22;6955322;28;20246;-76
2021/01/20 13:43:54;;;;;;;2.20;1.67;;;;;;;14.77;31.95;94230.75;6968410;28;20271;-76
2021/01/20 13:47:14;;;;;;;2.03;1.00;;;;;;;14.73;32.01;94212.63;6935398;28;20239;-74
2021/01/20 13:50:35;;;;;;;2.57;0.93;;;;;;;14.61;31.85;94217.59;6973136;28;20226;-76
2021/01/20 13:54:00;;;;;;;1.93;1.40;;;;;;;14.55;31.57;94213.00;6940377;28;20212;-76
2021/01/20 13:57:20;;;;;;;1.40;1.00;;;;;;;14.46;31.79;94204.25;6927835;28;20226;-75
2021/01/20 14:00:41;;;;;;;1.20;1.03;;;;;;;14.42;32.87;94200.31;6931558;28;20468;-76
2021/01/20 14:04:01;;;;;;;0.83;0.77;;;;;;;14.33;33.22;94193.38;6918044;28;20684;-76
2021/01/20 14:07:21;;;;;;;1.20;1.10;;;;;;;14.25;34.02;94192.63;6916861;28;20210;-75
2021/01/20 14:10:42;;;;;;;1.43;1.10;;;;;;;14.15;34.43;94196.38;6928277;28;20691;-75
2021/01/20 14:14:02;;;;;;;1.97;0.90;;;;;;;14.03;34.30;94189.84;6933918;28;20196;-75
2021/01/20 14:17:23;;;;;;;1.47;1.10;;;;;;;13.92;34.34;94192.16;6920558;28;20232;-74
2021/01/20 14:20:43;;;;;;;2.17;1.20;;;;;;;13.80;34.71;94181.06;6927478;28;20214;-75
2021/01/20 14:24:04;;;;;;;1.00;0.90;;;;;;;13.72;34.64;94174.00;6944908;28;20203;-74
2021/01/20 14:27:27;;;;;;;2.17;0.80;;;;;;;13.71;34.97;94159.00;6930543;28;20302;-75
2021/01/20 14:30:48;;;;;;;1.20;0.97;;;;;;;13.67;35.39;94164.88;6963766;28;20702;-75
2021/01/20 14:34:08;;;;;;;2.03;1.20;;;;;;;13.60;34.52;94162.09;6929411;28;20223;-75
2021/01/20 14:37:29;;;;;;;1.30;1.10;;;;;;;13.51;35.15;94152.50;6935714;28;20215;-75
2021/01/20 14:40:53;;;;;;;1.17;1.00;;;;;;;13.35;34.96;94149.97;6930177;28;20802;-76
2021/01/20 14:44:14;;;;;;;1.00;0.90;;;;;;;13.22;35.44;94155.94;6937601;28;20203;-75
2021/01/20 14:47:35;;;;;;;2.10;1.50;;;;;;;13.10;35.36;94154.66;6948093;28;20672;-75
2021/01/20 14:50:55;;;;;;;1.60;1.00;;;;;;;13.02;35.92;94151.22;6948203;28;20265;-75
2021/01/20 14:54:15;;;;;;;1.40;1.10;;;;;;;12.93;36.12;94158.41;6975480;28;20214;-75
2021/01/20 14:57:36;;;;;;;1.37;1.10;;;;;;;12.89;36.27;94149.13;6954944;28;20369;-76
2021/01/20 15:00:56;;;;;;;1.33;0.90;;;;;;;12.86;36.42;94149.50;6947108;28;20264;-76
2021/01/20 15:04:16;;;;;;;1.40;1.03;;;;;;;12.79;36.42;94148.53;6926145;28;20226;-76
2021/01/20 15:07:37;;;;;;;2.67;1.30;;;;;;;12.73;36.38;94144.72;6908855;28;20267;-76
2021/01/20 15:10:57;;;;;;;2.50;1.43;;;;;;;12.70;36.29;94147.75;6928225;28;20211;-76
2021/01/20 15:14:18;;;;;;;2.77;1.30;;;;;;;12.65;36.84;94147.44;6911204;28;20298;-73
2021/01/20 15:17:38;;;;;;;1.43;1.00;;;;;;;12.61;36.59;94134.66;6939045;28;20218;-76
2021/01/20 15:20:59;;;;;;;2.20;1.17;;;;;;;12.47;36.90;94131.72;6926205;28;20241;-75
2021/01/20 15:24:19;;;;;;;2.83;1.03;;;;;;;12.36;36.91;94124.16;6925797;28;20711;-73
2021/01/20 15:27:40;;;;;;;1.20;0.90;;;;;;;12.29;36.87;94117.84;6921821;28;20895;-75
2021/01/20 15:31:00;;;;;;;3.87;0.90;;;;;;;12.20;37.21;94120.72;6954198;28;20233;-76
2021/01/20 15:34:21;;;;;;;1.77;1.10;;;;;;;12.06;37.57;94121.47;6958785;28;20567;-75
2021/01/20 15:37:41;;;;;;;1.37;1.00;;;;;;;12.07;36.10;94133.78;6929519;28;20249;-75
2021/01/20 15:41:02;;;;;;;1.80;1.10;;;;;;;12.11;35.50;94116.47;6951630;28;20222;-75
2021/01/20 15:44:23;;;;;;;2.13;1.20;;;;;;;12.20;34.82;94121.56;6919422;28;20570;-74
2021/01/20 15:47:43;;;;;;;1.70;1.60;;;;;;;12.25;34.17;94113.91;6933111;28;20289;-75
2021/01/20 15:51:03;;;;;;;1.30;1.20;;;;;;;12.23;33.90;94107.91;6956698;28;20222;-77
2021/01/20 15:54:27;;;;;;;1.50;1.20;;;;;;;12.22;34.50;94116.09;6972082;28;20241;-75